sensor_id;sensor_type;location;lat;lon;timestamp;P1;durP1;ratioP1;P2;durP2;ratioP2
69754;SDS011;57023;52.218;5.158;2023-04-25T00:01:33;16.55;;;5.40;;
69754;SDS011;57023;52.218;5.158;2023-04-25T00:04:00;16.67;;;4.53;;
69754;SDS011;57023;52.218;5.158;2023-04-25T00:06:26;16.83;;;4.53;;
69754;SDS011;57023;52.218;5.158;2023-04-25T00:08:52;12.93;;;4.57;;
69754;SDS011;57023;52.218;5.158;2023-04-25T00:11:18;10.90;;;4.70;;
69754;SDS011;57023;52.218;5.158;2023-04-25T00:13:43;14.65;;;5.43;;
69754;SDS011;57023;52.218;5.158;2023-04-25T00:16:08;17.83;;;4.75;;
69754;SDS011;57023;52.218;5.158;2023-04-25T00:18:34;16.60;;;4.80;;
69754;SDS011;57023;52.218;5.158;2023-04-25T00:20:59;13.13;;;4.38;;
69754;SDS011;57023;52.218;5.158;2023-04-25T00:23:25;12.63;;;4.80;;
69754;SDS011;57023;52.218;5.158;2023-04-25T00:25:51;12.82;;;4.53;;
69754;SDS011;57023;52.218;5.158;2023-04-25T00:28:16;18.58;;;4.68;;
69754;SDS011;57023;52.218;5.158;2023-04-25T00:30:42;12.48;;;4.53;;
69754;SDS011;57023;52.218;5.158;2023-04-25T00:33:08;13.88;;;4.72;;
69754;SDS011;57023;52.218;5.158;2023-04-25T00:35:33;15.05;;;4.38;;
69754;SDS011;57023;52.218;5.158;2023-04-25T00:37:59;17.73;;;4.95;;
69754;SDS011;57023;52.218;5.158;2023-04-25T00:40:25;15.73;;;4.38;;
69754;SDS011;57023;52.218;5.158;2023-04-25T00:42:53;13.45;;;5.03;;
69754;SDS011;57023;52.218;5.158;2023-04-25T00:45:19;17.52;;;4.63;;
69754;SDS011;57023;52.218;5.158;2023-04-25T00:47:44;15.50;;;4.85;;
69754;SDS011;57023;52.218;5.158;2023-04-25T00:50:10;12.63;;;4.53;;
69754;SDS011;57023;52.218;5.158;2023-04-25T00:52:40;12.90;;;4.18;;
69754;SDS011;57023;52.218;5.158;2023-04-25T00:55:07;12.32;;;4.30;;
69754;SDS011;57023;52.218;5.158;2023-04-25T00:57:33;12.68;;;4.35;;
69754;SDS011;57023;52.218;5.158;2023-04-25T00:59:58;15.80;;;4.40;;
69754;SDS011;57023;52.218;5.158;2023-04-25T01:02:23;14.77;;;3.97;;
69754;SDS011;57023;52.218;5.158;2023-04-25T01:04:50;16.23;;;4.60;;
69754;SDS011;57023;52.218;5.158;2023-04-25T01:07:15;10.95;;;5.07;;
69754;SDS011;57023;52.218;5.158;2023-04-25T01:09:41;11.32;;;4.30;;
69754;SDS011;57023;52.218;5.158;2023-04-25T01:12:06;11.98;;;4.80;;
69754;SDS011;57023;52.218;5.158;2023-04-25T01:14:32;17.92;;;4.43;;
69754;SDS011;57023;52.218;5.158;2023-04-25T01:16:57;13.52;;;4.50;;
69754;SDS011;57023;52.218;5.158;2023-04-25T01:19:23;14.55;;;4.57;;
69754;SDS011;57023;52.218;5.158;2023-04-25T01:21:49;14.90;;;5.25;;
69754;SDS011;57023;52.218;5.158;2023-04-25T01:24:14;13.63;;;4.32;;
69754;SDS011;57023;52.218;5.158;2023-04-25T01:26:40;15.70;;;5.15;;
69754;SDS011;57023;52.218;5.158;2023-04-25T01:29:09;12.68;;;4.68;;
69754;SDS011;57023;52.218;5.158;2023-04-25T01:31:35;15.38;;;4.35;;
69754;SDS011;57023;52.218;5.158;2023-04-25T01:34:01;14.73;;;4.93;;
69754;SDS011;57023;52.218;5.158;2023-04-25T01:36:26;13.98;;;4.38;;
69754;SDS011;57023;52.218;5.158;2023-04-25T01:38:52;14.60;;;4.80;;
69754;SDS011;57023;52.218;5.158;2023-04-25T01:41:17;13.43;;;4.53;;
69754;SDS011;57023;52.218;5.158;2023-04-25T01:43:43;14.80;;;4.72;;
69754;SDS011;57023;52.218;5.158;2023-04-25T01:46:08;10.57;;;4.35;;
69754;SDS011;57023;52.218;5.158;2023-04-25T01:48:34;15.65;;;4.45;;
69754;SDS011;57023;52.218;5.158;2023-04-25T01:50:59;20.70;;;5.60;;
69754;SDS011;57023;52.218;5.158;2023-04-25T01:53:24;11.95;;;4.47;;
69754;SDS011;57023;52.218;5.158;2023-04-25T01:55:50;16.02;;;4.53;;
69754;SDS011;57023;52.218;5.158;2023-04-25T01:58:15;12.05;;;4.15;;
69754;SDS011;57023;52.218;5.158;2023-04-25T02:00:41;15.30;;;4.80;;
69754;SDS011;57023;52.218;5.158;2023-04-25T02:03:09;16.33;;;5.22;;
69754;SDS011;57023;52.218;5.158;2023-04-25T02:05:35;19.33;;;5.00;;
69754;SDS011;57023;52.218;5.158;2023-04-25T02:08:01;18.30;;;4.82;;
69754;SDS011;57023;52.218;5.158;2023-04-25T02:10:30;12.80;;;4.85;;
69754;SDS011;57023;52.218;5.158;2023-04-25T02:12:56;13.32;;;5.25;;
69754;SDS011;57023;52.218;5.158;2023-04-25T02:15:22;15.88;;;5.32;;
69754;SDS011;57023;52.218;5.158;2023-04-25T02:17:47;14.60;;;4.85;;
69754;SDS011;57023;52.218;5.158;2023-04-25T02:20:12;13.32;;;5.32;;
69754;SDS011;57023;52.218;5.158;2023-04-25T02:22:38;15.80;;;5.32;;
69754;SDS011;57023;52.218;5.158;2023-04-25T02:25:03;14.90;;;5.55;;
69754;SDS011;57023;52.218;5.158;2023-04-25T02:27:29;11.75;;;5.25;;
69754;SDS011;57023;52.218;5.158;2023-04-25T02:29:55;14.02;;;5.13;;
69754;SDS011;57023;52.218;5.158;2023-04-25T02:32:20;16.75;;;5.10;;
69754;SDS011;57023;52.218;5.158;2023-04-25T02:34:46;16.00;;;5.15;;
69754;SDS011;57023;52.218;5.158;2023-04-25T02:37:11;15.93;;;5.10;;
69754;SDS011;57023;52.218;5.158;2023-04-25T02:39:36;13.35;;;4.82;;
69754;SDS011;57023;52.218;5.158;2023-04-25T02:42:02;11.35;;;5.00;;
69754;SDS011;57023;52.218;5.158;2023-04-25T02:44:27;17.08;;;6.30;;
69754;SDS011;57023;52.218;5.158;2023-04-25T02:46:53;14.95;;;5.10;;
69754;SDS011;57023;52.218;5.158;2023-04-25T02:49:18;13.85;;;4.72;;
69754;SDS011;57023;52.218;5.158;2023-04-25T02:51:43;15.23;;;4.82;;
69754;SDS011;57023;52.218;5.158;2023-04-25T02:56:36;13.90;;;4.53;;
69754;SDS011;57023;52.218;5.158;2023-04-25T02:59:02;10.98;;;4.35;;
69754;SDS011;57023;52.218;5.158;2023-04-25T03:01:27;17.20;;;5.22;;
69754;SDS011;57023;52.218;5.158;2023-04-25T03:03:52;13.40;;;4.40;;
69754;SDS011;57023;52.218;5.158;2023-04-25T03:06:18;18.77;;;5.72;;
69754;SDS011;57023;52.218;5.158;2023-04-25T03:08:43;18.92;;;5.13;;
69754;SDS011;57023;52.218;5.158;2023-04-25T03:11:08;16.35;;;4.20;;
69754;SDS011;57023;52.218;5.158;2023-04-25T03:13:36;16.55;;;4.18;;
69754;SDS011;57023;52.218;5.158;2023-04-25T03:16:01;17.83;;;4.70;;
69754;SDS011;57023;52.218;5.158;2023-04-25T03:18:27;13.10;;;3.90;;
69754;SDS011;57023;52.218;5.158;2023-04-25T03:20:52;12.32;;;3.97;;
69754;SDS011;57023;52.218;5.158;2023-04-25T03:23:17;12.73;;;3.58;;
69754;SDS011;57023;52.218;5.158;2023-04-25T03:25:43;12.73;;;3.50;;
69754;SDS011;57023;52.218;5.158;2023-04-25T03:28:08;12.80;;;3.60;;
69754;SDS011;57023;52.218;5.158;2023-04-25T03:30:33;16.52;;;4.05;;
69754;SDS011;57023;52.218;5.158;2023-04-25T03:32:59;11.38;;;3.42;;
69754;SDS011;57023;52.218;5.158;2023-04-25T03:35:24;11.40;;;3.72;;
69754;SDS011;57023;52.218;5.158;2023-04-25T03:37:49;13.73;;;3.90;;
69754;SDS011;57023;52.218;5.158;2023-04-25T03:40:15;14.30;;;3.85;;
69754;SDS011;57023;52.218;5.158;2023-04-25T03:42:40;11.27;;;3.75;;
69754;SDS011;57023;52.218;5.158;2023-04-25T03:45:06;9.07;;;3.65;;
69754;SDS011;57023;52.218;5.158;2023-04-25T03:47:32;12.52;;;3.50;;
69754;SDS011;57023;52.218;5.158;2023-04-25T03:49:57;13.95;;;3.88;;
69754;SDS011;57023;52.218;5.158;2023-04-25T03:52:22;9.40;;;3.45;;
69754;SDS011;57023;52.218;5.158;2023-04-25T03:54:47;10.45;;;3.17;;
69754;SDS011;57023;52.218;5.158;2023-04-25T03:57:13;8.77;;;3.25;;
69754;SDS011;57023;52.218;5.158;2023-04-25T03:59:38;12.07;;;3.20;;
69754;SDS011;57023;52.218;5.158;2023-04-25T04:02:04;8.73;;;3.00;;
69754;SDS011;57023;52.218;5.158;2023-04-25T04:04:29;8.00;;;3.20;;
69754;SDS011;57023;52.218;5.158;2023-04-25T04:06:57;9.27;;;3.30;;
69754;SDS011;57023;52.218;5.158;2023-04-25T04:09:23;12.73;;;3.15;;
69754;SDS011;57023;52.218;5.158;2023-04-25T04:11:48;10.93;;;3.28;;
69754;SDS011;57023;52.218;5.158;2023-04-25T04:14:13;11.95;;;3.05;;
69754;SDS011;57023;52.218;5.158;2023-04-25T04:16:39;10.88;;;2.90;;
69754;SDS011;57023;52.218;5.158;2023-04-25T04:19:04;10.73;;;3.00;;
69754;SDS011;57023;52.218;5.158;2023-04-25T04:21:30;9.38;;;2.83;;
69754;SDS011;57023;52.218;5.158;2023-04-25T04:23:56;8.93;;;3.20;;
69754;SDS011;57023;52.218;5.158;2023-04-25T04:26:22;8.55;;;3.08;;
69754;SDS011;57023;52.218;5.158;2023-04-25T04:28:48;13.73;;;3.13;;
69754;SDS011;57023;52.218;5.158;2023-04-25T04:31:15;9.07;;;3.33;;
69754;SDS011;57023;52.218;5.158;2023-04-25T04:33:43;11.93;;;3.60;;
69754;SDS011;57023;52.218;5.158;2023-04-25T04:36:09;14.60;;;3.40;;
69754;SDS011;57023;52.218;5.158;2023-04-25T04:38:34;12.43;;;3.80;;
69754;SDS011;57023;52.218;5.158;2023-04-25T04:41:04;9.27;;;3.22;;
69754;SDS011;57023;52.218;5.158;2023-04-25T04:43:33;9.30;;;3.00;;
69754;SDS011;57023;52.218;5.158;2023-04-25T04:46:02;13.20;;;3.33;;
69754;SDS011;57023;52.218;5.158;2023-04-25T04:48:32;8.35;;;3.08;;
69754;SDS011;57023;52.218;5.158;2023-04-25T04:51:00;7.97;;;3.13;;
69754;SDS011;57023;52.218;5.158;2023-04-25T04:53:25;5.68;;;2.58;;
69754;SDS011;57023;52.218;5.158;2023-04-25T04:55:51;9.55;;;3.20;;
69754;SDS011;57023;52.218;5.158;2023-04-25T04:58:16;7.40;;;3.10;;
69754;SDS011;57023;52.218;5.158;2023-04-25T05:00:41;8.07;;;3.00;;
69754;SDS011;57023;52.218;5.158;2023-04-25T05:03:07;5.82;;;2.60;;
69754;SDS011;57023;52.218;5.158;2023-04-25T05:05:32;7.93;;;2.53;;
69754;SDS011;57023;52.218;5.158;2023-04-25T05:07:57;6.60;;;2.60;;
69754;SDS011;57023;52.218;5.158;2023-04-25T05:10:23;6.80;;;2.45;;
69754;SDS011;57023;52.218;5.158;2023-04-25T05:12:48;9.10;;;3.00;;
69754;SDS011;57023;52.218;5.158;2023-04-25T05:15:13;8.07;;;2.60;;
69754;SDS011;57023;52.218;5.158;2023-04-25T05:17:39;4.90;;;2.50;;
69754;SDS011;57023;52.218;5.158;2023-04-25T05:20:05;6.05;;;2.50;;
69754;SDS011;57023;52.218;5.158;2023-04-25T05:22:31;5.65;;;2.60;;
69754;SDS011;57023;52.218;5.158;2023-04-25T05:24:57;6.53;;;2.55;;
69754;SDS011;57023;52.218;5.158;2023-04-25T05:27:22;9.00;;;2.75;;
69754;SDS011;57023;52.218;5.158;2023-04-25T05:29:50;5.60;;;2.60;;
69754;SDS011;57023;52.218;5.158;2023-04-25T05:32:19;6.05;;;2.28;;
69754;SDS011;57023;52.218;5.158;2023-04-25T05:34:45;9.73;;;2.70;;
69754;SDS011;57023;52.218;5.158;2023-04-25T05:37:10;5.88;;;2.40;;
69754;SDS011;57023;52.218;5.158;2023-04-25T05:39:41;7.25;;;2.80;;
69754;SDS011;57023;52.218;5.158;2023-04-25T05:42:06;8.80;;;3.20;;
69754;SDS011;57023;52.218;5.158;2023-04-25T05:44:31;5.78;;;2.83;;
69754;SDS011;57023;52.218;5.158;2023-04-25T05:46:57;10.60;;;2.70;;
69754;SDS011;57023;52.218;5.158;2023-04-25T05:49:22;7.80;;;2.80;;
69754;SDS011;57023;52.218;5.158;2023-04-25T05:51:47;6.57;;;2.65;;
69754;SDS011;57023;52.218;5.158;2023-04-25T05:54:13;8.95;;;2.50;;
69754;SDS011;57023;52.218;5.158;2023-04-25T05:56:38;8.30;;;2.80;;
69754;SDS011;57023;52.218;5.158;2023-04-25T05:59:06;7.53;;;2.90;;
69754;SDS011;57023;52.218;5.158;2023-04-25T06:01:32;13.15;;;2.88;;
69754;SDS011;57023;52.218;5.158;2023-04-25T06:03:57;10.68;;;2.95;;
69754;SDS011;57023;52.218;5.158;2023-04-25T06:06:22;8.20;;;2.70;;
69754;SDS011;57023;52.218;5.158;2023-04-25T06:08:48;8.10;;;2.83;;
69754;SDS011;57023;52.218;5.158;2023-04-25T06:11:13;7.75;;;2.70;;
69754;SDS011;57023;52.218;5.158;2023-04-25T06:13:39;8.98;;;2.75;;
69754;SDS011;57023;52.218;5.158;2023-04-25T06:16:04;9.57;;;2.72;;
69754;SDS011;57023;52.218;5.158;2023-04-25T06:18:31;8.65;;;3.10;;
69754;SDS011;57023;52.218;5.158;2023-04-25T06:20:57;9.77;;;2.92;;
69754;SDS011;57023;52.218;5.158;2023-04-25T06:23:23;9.48;;;2.72;;
69754;SDS011;57023;52.218;5.158;2023-04-25T06:25:48;7.80;;;2.85;;
69754;SDS011;57023;52.218;5.158;2023-04-25T06:28:13;8.68;;;2.85;;
69754;SDS011;57023;52.218;5.158;2023-04-25T06:30:39;8.63;;;3.28;;
69754;SDS011;57023;52.218;5.158;2023-04-25T06:33:04;10.07;;;3.10;;
69754;SDS011;57023;52.218;5.158;2023-04-25T06:35:29;7.25;;;2.55;;
69754;SDS011;57023;52.218;5.158;2023-04-25T06:37:55;8.63;;;3.17;;
69754;SDS011;57023;52.218;5.158;2023-04-25T06:40:20;7.28;;;2.83;;
69754;SDS011;57023;52.218;5.158;2023-04-25T06:42:45;10.77;;;3.00;;
69754;SDS011;57023;52.218;5.158;2023-04-25T06:45:11;11.75;;;3.03;;
69754;SDS011;57023;52.218;5.158;2023-04-25T06:47:36;10.32;;;3.20;;
69754;SDS011;57023;52.218;5.158;2023-04-25T06:50:02;7.75;;;2.85;;
69754;SDS011;57023;52.218;5.158;2023-04-25T06:52:28;8.07;;;3.05;;
69754;SDS011;57023;52.218;5.158;2023-04-25T06:54:53;9.18;;;2.67;;
69754;SDS011;57023;52.218;5.158;2023-04-25T06:57:18;8.35;;;2.80;;
69754;SDS011;57023;52.218;5.158;2023-04-25T06:59:44;11.95;;;3.20;;
69754;SDS011;57023;52.218;5.158;2023-04-25T07:02:09;7.05;;;2.42;;
69754;SDS011;57023;52.218;5.158;2023-04-25T07:04:34;12.13;;;2.70;;
69754;SDS011;57023;52.218;5.158;2023-04-25T07:07:00;7.70;;;2.53;;
69754;SDS011;57023;52.218;5.158;2023-04-25T07:09:27;13.88;;;2.67;;
69754;SDS011;57023;52.218;5.158;2023-04-25T07:11:53;7.57;;;2.58;;
69754;SDS011;57023;52.218;5.158;2023-04-25T07:14:18;9.70;;;2.70;;
69754;SDS011;57023;52.218;5.158;2023-04-25T07:16:43;7.68;;;2.53;;
69754;SDS011;57023;52.218;5.158;2023-04-25T07:19:08;7.30;;;2.67;;
69754;SDS011;57023;52.218;5.158;2023-04-25T07:21:34;7.13;;;2.75;;
69754;SDS011;57023;52.218;5.158;2023-04-25T07:24:01;9.65;;;2.20;;
69754;SDS011;57023;52.218;5.158;2023-04-25T07:26:26;11.10;;;3.13;;
69754;SDS011;57023;52.218;5.158;2023-04-25T07:28:52;9.70;;;2.60;;
69754;SDS011;57023;52.218;5.158;2023-04-25T07:31:17;11.85;;;2.70;;
69754;SDS011;57023;52.218;5.158;2023-04-25T07:33:45;8.25;;;2.20;;
69754;SDS011;57023;52.218;5.158;2023-04-25T07:36:11;11.98;;;2.40;;
69754;SDS011;57023;52.218;5.158;2023-04-25T07:38:37;9.93;;;2.55;;
69754;SDS011;57023;52.218;5.158;2023-04-25T07:41:03;7.15;;;2.53;;
69754;SDS011;57023;52.218;5.158;2023-04-25T07:43:29;8.15;;;2.60;;
69754;SDS011;57023;52.218;5.158;2023-04-25T07:45:55;10.88;;;2.58;;
69754;SDS011;57023;52.218;5.158;2023-04-25T07:48:21;11.55;;;2.60;;
69754;SDS011;57023;52.218;5.158;2023-04-25T07:50:46;16.42;;;2.85;;
69754;SDS011;57023;52.218;5.158;2023-04-25T07:53:14;17.88;;;3.38;;
69754;SDS011;57023;52.218;5.158;2023-04-25T07:55:40;8.35;;;2.90;;
69754;SDS011;57023;52.218;5.158;2023-04-25T07:58:05;8.60;;;2.20;;
69754;SDS011;57023;52.218;5.158;2023-04-25T08:00:31;9.18;;;2.55;;
69754;SDS011;57023;52.218;5.158;2023-04-25T08:02:57;7.20;;;2.60;;
69754;SDS011;57023;52.218;5.158;2023-04-25T08:05:22;11.93;;;2.85;;
69754;SDS011;57023;52.218;5.158;2023-04-25T08:07:47;8.80;;;2.25;;
69754;SDS011;57023;52.218;5.158;2023-04-25T08:10:13;11.00;;;2.33;;
69754;SDS011;57023;52.218;5.158;2023-04-25T08:12:38;11.85;;;3.10;;
69754;SDS011;57023;52.218;5.158;2023-04-25T08:15:04;10.95;;;2.60;;
69754;SDS011;57023;52.218;5.158;2023-04-25T08:17:31;9.82;;;2.28;;
69754;SDS011;57023;52.218;5.158;2023-04-25T08:19:56;8.05;;;2.67;;
69754;SDS011;57023;52.218;5.158;2023-04-25T08:22:21;8.05;;;2.60;;
69754;SDS011;57023;52.218;5.158;2023-04-25T08:24:47;10.32;;;2.53;;
69754;SDS011;57023;52.218;5.158;2023-04-25T08:27:15;7.97;;;2.25;;
69754;SDS011;57023;52.218;5.158;2023-04-25T08:29:41;10.90;;;2.20;;
69754;SDS011;57023;52.218;5.158;2023-04-25T08:32:07;13.85;;;2.88;;
69754;SDS011;57023;52.218;5.158;2023-04-25T08:34:32;9.07;;;2.33;;
69754;SDS011;57023;52.218;5.158;2023-04-25T08:36:57;8.52;;;2.15;;
69754;SDS011;57023;52.218;5.158;2023-04-25T08:39:23;9.43;;;2.53;;
69754;SDS011;57023;52.218;5.158;2023-04-25T08:41:51;5.35;;;2.00;;
69754;SDS011;57023;52.218;5.158;2023-04-25T08:44:17;9.57;;;2.40;;
69754;SDS011;57023;52.218;5.158;2023-04-25T08:46:44;6.68;;;2.13;;
69754;SDS011;57023;52.218;5.158;2023-04-25T08:49:10;9.77;;;2.08;;
69754;SDS011;57023;52.218;5.158;2023-04-25T08:51:39;7.32;;;1.92;;
69754;SDS011;57023;52.218;5.158;2023-04-25T08:54:11;6.07;;;1.95;;
69754;SDS011;57023;52.218;5.158;2023-04-25T08:56:38;6.20;;;2.42;;
69754;SDS011;57023;52.218;5.158;2023-04-25T08:59:06;5.35;;;1.70;;
69754;SDS011;57023;52.218;5.158;2023-04-25T09:01:33;7.55;;;2.10;;
69754;SDS011;57023;52.218;5.158;2023-04-25T09:04:00;8.88;;;2.10;;
69754;SDS011;57023;52.218;5.158;2023-04-25T09:06:25;3.85;;;1.65;;
69754;SDS011;57023;52.218;5.158;2023-04-25T09:08:51;7.85;;;1.90;;
69754;SDS011;57023;52.218;5.158;2023-04-25T09:11:16;5.78;;;2.10;;
69754;SDS011;57023;52.218;5.158;2023-04-25T09:13:42;8.60;;;2.20;;
69754;SDS011;57023;52.218;5.158;2023-04-25T09:16:07;6.68;;;2.15;;
69754;SDS011;57023;52.218;5.158;2023-04-25T09:18:33;7.10;;;2.00;;
69754;SDS011;57023;52.218;5.158;2023-04-25T09:21:06;8.60;;;2.13;;
69754;SDS011;57023;52.218;5.158;2023-04-25T09:23:43;8.85;;;2.17;;
69754;SDS011;57023;52.218;5.158;2023-04-25T09:26:09;8.35;;;2.50;;
69754;SDS011;57023;52.218;5.158;2023-04-25T09:28:36;7.05;;;2.60;;
69754;SDS011;57023;52.218;5.158;2023-04-25T09:31:02;6.45;;;2.13;;
69754;SDS011;57023;52.218;5.158;2023-04-25T09:33:29;10.65;;;2.10;;
69754;SDS011;57023;52.218;5.158;2023-04-25T09:36:03;8.90;;;2.20;;
69754;SDS011;57023;52.218;5.158;2023-04-25T09:38:39;5.95;;;1.92;;
69754;SDS011;57023;52.218;5.158;2023-04-25T09:41:07;10.93;;;2.30;;
69754;SDS011;57023;52.218;5.158;2023-04-25T09:43:35;9.98;;;2.55;;
69754;SDS011;57023;52.218;5.158;2023-04-25T09:46:01;7.90;;;2.42;;
69754;SDS011;57023;52.218;5.158;2023-04-25T09:48:27;12.85;;;2.50;;
69754;SDS011;57023;52.218;5.158;2023-04-25T09:53:38;4.90;;;1.63;;
69754;SDS011;57023;52.218;5.158;2023-04-25T09:56:05;6.30;;;2.10;;
69754;SDS011;57023;52.218;5.158;2023-04-25T09:58:32;6.43;;;1.88;;
69754;SDS011;57023;52.218;5.158;2023-04-25T10:00:59;5.10;;;1.92;;
69754;SDS011;57023;52.218;5.158;2023-04-25T10:03:31;5.78;;;2.10;;
69754;SDS011;57023;52.218;5.158;2023-04-25T10:06:02;4.68;;;1.85;;
69754;SDS011;57023;52.218;5.158;2023-04-25T10:08:33;5.78;;;2.10;;
69754;SDS011;57023;52.218;5.158;2023-04-25T10:11:01;6.25;;;2.10;;
69754;SDS011;57023;52.218;5.158;2023-04-25T10:13:28;4.40;;;1.75;;
69754;SDS011;57023;52.218;5.158;2023-04-25T10:15:54;5.00;;;2.00;;
69754;SDS011;57023;52.218;5.158;2023-04-25T10:18:21;4.53;;;1.70;;
69754;SDS011;57023;52.218;5.158;2023-04-25T10:20:47;6.38;;;1.90;;
69754;SDS011;57023;52.218;5.158;2023-04-25T10:23:13;5.30;;;2.10;;
69754;SDS011;57023;52.218;5.158;2023-04-25T10:25:40;7.28;;;2.00;;
69754;SDS011;57023;52.218;5.158;2023-04-25T10:28:06;5.70;;;1.88;;
69754;SDS011;57023;52.218;5.158;2023-04-25T10:30:31;5.45;;;2.00;;
69754;SDS011;57023;52.218;5.158;2023-04-25T10:32:56;5.07;;;1.92;;
69754;SDS011;57023;52.218;5.158;2023-04-25T10:35:24;4.45;;;1.95;;
69754;SDS011;57023;52.218;5.158;2023-04-25T10:38:02;4.57;;;1.90;;
69754;SDS011;57023;52.218;5.158;2023-04-25T10:40:29;4.43;;;1.90;;
69754;SDS011;57023;52.218;5.158;2023-04-25T10:42:55;5.00;;;2.25;;
69754;SDS011;57023;52.218;5.158;2023-04-25T10:45:21;7.28;;;2.05;;
69754;SDS011;57023;52.218;5.158;2023-04-25T10:47:46;4.25;;;2.00;;
69754;SDS011;57023;52.218;5.158;2023-04-25T10:50:13;6.53;;;2.00;;
69754;SDS011;57023;52.218;5.158;2023-04-25T10:52:39;5.65;;;2.00;;
69754;SDS011;57023;52.218;5.158;2023-04-25T10:55:05;4.85;;;1.98;;
69754;SDS011;57023;52.218;5.158;2023-04-25T10:57:39;5.18;;;1.98;;
69754;SDS011;57023;52.218;5.158;2023-04-25T11:02:31;4.50;;;1.83;;
69754;SDS011;57023;52.218;5.158;2023-04-25T11:04:57;4.88;;;1.95;;
69754;SDS011;57023;52.218;5.158;2023-04-25T11:10:04;5.05;;;2.00;;
69754;SDS011;57023;52.218;5.158;2023-04-25T11:12:30;4.30;;;2.00;;
69754;SDS011;57023;52.218;5.158;2023-04-25T11:17:24;5.05;;;2.00;;
69754;SDS011;57023;52.218;5.158;2023-04-25T11:19:50;5.60;;;1.98;;
69754;SDS011;57023;52.218;5.158;2023-04-25T11:22:15;6.60;;;1.85;;
69754;SDS011;57023;52.218;5.158;2023-04-25T11:24:41;4.63;;;1.98;;
69754;SDS011;57023;52.218;5.158;2023-04-25T11:27:08;5.73;;;1.90;;
69754;SDS011;57023;52.218;5.158;2023-04-25T11:29:34;5.40;;;1.90;;
69754;SDS011;57023;52.218;5.158;2023-04-25T11:32:00;7.60;;;2.20;;
69754;SDS011;57023;52.218;5.158;2023-04-25T11:34:26;4.23;;;1.73;;
69754;SDS011;57023;52.218;5.158;2023-04-25T11:36:52;6.00;;;1.90;;
69754;SDS011;57023;52.218;5.158;2023-04-25T11:39:18;6.00;;;1.95;;
69754;SDS011;57023;52.218;5.158;2023-04-25T11:41:44;5.13;;;2.20;;
69754;SDS011;57023;52.218;5.158;2023-04-25T11:44:09;5.68;;;2.10;;
69754;SDS011;57023;52.218;5.158;2023-04-25T11:46:35;4.95;;;1.80;;
69754;SDS011;57023;52.218;5.158;2023-04-25T11:49:00;4.40;;;2.05;;
69754;SDS011;57023;52.218;5.158;2023-04-25T11:51:26;5.30;;;2.00;;
69754;SDS011;57023;52.218;5.158;2023-04-25T11:53:54;5.78;;;2.15;;
69754;SDS011;57023;52.218;5.158;2023-04-25T11:56:20;7.78;;;2.70;;
69754;SDS011;57023;52.218;5.158;2023-04-25T11:58:58;7.35;;;2.22;;
69754;SDS011;57023;52.218;5.158;2023-04-25T12:03:53;7.18;;;2.20;;
69754;SDS011;57023;52.218;5.158;2023-04-25T12:06:18;5.65;;;2.17;;
69754;SDS011;57023;52.218;5.158;2023-04-25T12:09:00;5.05;;;2.03;;
69754;SDS011;57023;52.218;5.158;2023-04-25T12:11:26;6.68;;;2.22;;
69754;SDS011;57023;52.218;5.158;2023-04-25T12:13:51;7.25;;;2.42;;
69754;SDS011;57023;52.218;5.158;2023-04-25T12:16:18;9.32;;;2.30;;
69754;SDS011;57023;52.218;5.158;2023-04-25T12:18:43;4.80;;;2.05;;
69754;SDS011;57023;52.218;5.158;2023-04-25T12:21:09;4.57;;;2.08;;
69754;SDS011;57023;52.218;5.158;2023-04-25T12:23:34;5.20;;;1.90;;
69754;SDS011;57023;52.218;5.158;2023-04-25T12:26:03;5.10;;;2.10;;
69754;SDS011;57023;52.218;5.158;2023-04-25T12:28:32;5.28;;;2.00;;
69754;SDS011;57023;52.218;5.158;2023-04-25T12:31:07;5.53;;;2.03;;
69754;SDS011;57023;52.218;5.158;2023-04-25T12:33:36;4.88;;;2.05;;
69754;SDS011;57023;52.218;5.158;2023-04-25T12:36:05;4.43;;;1.80;;
69754;SDS011;57023;52.218;5.158;2023-04-25T12:38:38;5.57;;;2.00;;
69754;SDS011;57023;52.218;5.158;2023-04-25T12:41:04;6.57;;;2.00;;
69754;SDS011;57023;52.218;5.158;2023-04-25T12:43:29;6.03;;;2.30;;
69754;SDS011;57023;52.218;5.158;2023-04-25T12:45:55;7.50;;;2.13;;
69754;SDS011;57023;52.218;5.158;2023-04-25T12:48:21;5.68;;;2.08;;
69754;SDS011;57023;52.218;5.158;2023-04-25T12:50:47;5.45;;;2.30;;
69754;SDS011;57023;52.218;5.158;2023-04-25T12:53:18;3.78;;;1.65;;
69754;SDS011;57023;52.218;5.158;2023-04-25T12:55:45;5.63;;;1.85;;
69754;SDS011;57023;52.218;5.158;2023-04-25T12:58:12;4.00;;;1.67;;
69754;SDS011;57023;52.218;5.158;2023-04-25T13:00:37;4.35;;;1.67;;
69754;SDS011;57023;52.218;5.158;2023-04-25T13:03:03;6.40;;;1.98;;
69754;SDS011;57023;52.218;5.158;2023-04-25T13:05:29;4.60;;;2.08;;
69754;SDS011;57023;52.218;5.158;2023-04-25T13:07:55;7.90;;;2.05;;
69754;SDS011;57023;52.218;5.158;2023-04-25T13:10:20;5.15;;;2.15;;
69754;SDS011;57023;52.218;5.158;2023-04-25T13:12:46;4.78;;;1.90;;
69754;SDS011;57023;52.218;5.158;2023-04-25T13:15:11;4.90;;;1.77;;
69754;SDS011;57023;52.218;5.158;2023-04-25T13:17:37;5.30;;;2.20;;
69754;SDS011;57023;52.218;5.158;2023-04-25T13:20:03;6.13;;;2.00;;
69754;SDS011;57023;52.218;5.158;2023-04-25T13:22:34;7.82;;;2.30;;
69754;SDS011;57023;52.218;5.158;2023-04-25T13:25:10;4.60;;;2.03;;
69754;SDS011;57023;52.218;5.158;2023-04-25T13:27:36;6.05;;;2.13;;
69754;SDS011;57023;52.218;5.158;2023-04-25T13:30:05;6.47;;;2.22;;
69754;SDS011;57023;52.218;5.158;2023-04-25T13:32:33;6.85;;;2.40;;
69754;SDS011;57023;52.218;5.158;2023-04-25T13:35:00;7.03;;;2.25;;
69754;SDS011;57023;52.218;5.158;2023-04-25T13:37:27;5.57;;;2.10;;
69754;SDS011;57023;52.218;5.158;2023-04-25T13:39:52;6.13;;;2.10;;
69754;SDS011;57023;52.218;5.158;2023-04-25T13:42:20;6.70;;;2.63;;
69754;SDS011;57023;52.218;5.158;2023-04-25T13:44:46;6.68;;;2.38;;
69754;SDS011;57023;52.218;5.158;2023-04-25T13:47:11;6.07;;;2.15;;
69754;SDS011;57023;52.218;5.158;2023-04-25T13:49:36;4.50;;;2.17;;
69754;SDS011;57023;52.218;5.158;2023-04-25T13:52:02;4.60;;;2.10;;
69754;SDS011;57023;52.218;5.158;2023-04-25T13:54:27;5.18;;;2.47;;
69754;SDS011;57023;52.218;5.158;2023-04-25T13:56:52;7.68;;;2.38;;
69754;SDS011;57023;52.218;5.158;2023-04-25T13:59:20;5.75;;;2.15;;
69754;SDS011;57023;52.218;5.158;2023-04-25T14:01:45;7.28;;;2.25;;
69754;SDS011;57023;52.218;5.158;2023-04-25T14:04:11;4.85;;;2.13;;
69754;SDS011;57023;52.218;5.158;2023-04-25T14:06:36;5.30;;;2.13;;
69754;SDS011;57023;52.218;5.158;2023-04-25T14:09:02;5.57;;;2.17;;
69754;SDS011;57023;52.218;5.158;2023-04-25T14:11:29;6.60;;;2.30;;
69754;SDS011;57023;52.218;5.158;2023-04-25T14:13:54;6.10;;;2.20;;
69754;SDS011;57023;52.218;5.158;2023-04-25T14:16:20;6.28;;;2.38;;
69754;SDS011;57023;52.218;5.158;2023-04-25T14:18:45;5.43;;;2.40;;
69754;SDS011;57023;52.218;5.158;2023-04-25T14:21:10;5.95;;;2.17;;
69754;SDS011;57023;52.218;5.158;2023-04-25T14:23:36;5.70;;;2.17;;
69754;SDS011;57023;52.218;5.158;2023-04-25T14:26:01;6.10;;;2.17;;
69754;SDS011;57023;52.218;5.158;2023-04-25T14:28:26;6.55;;;2.20;;
69754;SDS011;57023;52.218;5.158;2023-04-25T14:30:52;4.43;;;2.10;;
69754;SDS011;57023;52.218;5.158;2023-04-25T14:33:17;4.95;;;2.00;;
69754;SDS011;57023;52.218;5.158;2023-04-25T14:35:43;5.82;;;1.92;;
69754;SDS011;57023;52.218;5.158;2023-04-25T14:38:08;4.63;;;2.00;;
69754;SDS011;57023;52.218;5.158;2023-04-25T14:40:33;5.30;;;2.20;;
69754;SDS011;57023;52.218;5.158;2023-04-25T14:42:59;5.78;;;2.13;;
69754;SDS011;57023;52.218;5.158;2023-04-25T14:45:27;5.47;;;2.00;;
69754;SDS011;57023;52.218;5.158;2023-04-25T14:47:52;3.85;;;1.90;;
69754;SDS011;57023;52.218;5.158;2023-04-25T14:50:18;4.75;;;2.13;;
69754;SDS011;57023;52.218;5.158;2023-04-25T14:52:46;5.00;;;1.98;;